Time;durP1;ratioP1;P1;durP2;ratioP2;P2;SDS_P1;SDS_P2;PMS_P1;PMS_P2;Temp;Humidity;BMP_temperature;BMP_pressure;BME280_temperature;BME280_humidity;BME280_pressure;Samples;Min_cycle;Max_cycle;Signal;HPM_P1;HPM_P2
2021/11/04 00:02:39;;;;;;;0.25;0.25;;;;;;;5.72;100.00;99792.41;5072637;28;20083;-81
2021/11/04 00:05:10;;;;;;;0.20;0.20;;;;;;;5.79;100.00;99798.34;5068499;28;20049;-81
2021/11/04 00:07:45;;;;;;;0.20;0.20;;;;;;;5.77;100.00;99797.78;5063922;28;20262;-82
2021/11/04 00:10:21;;;;;;;0.20;0.20;;;;;;;5.72;100.00;99781.63;5074979;28;20048;-82
2021/11/04 00:12:54;;;;;;;0.20;0.20;;;;;;;5.77;100.00;99792.41;5071012;28;20053;-82
2021/11/04 00:15:28;;;;;;;0.20;0.20;;;;;;;5.75;100.00;99792.66;5070981;28;20045;-81
2021/11/04 00:18:01;;;;;;;0.20;0.20;;;;;;;5.71;100.00;99804.28;5078600;28;20061;-83
2021/11/04 00:20:36;;;;;;;0.20;0.20;;;;;;;5.70;100.00;99806.16;5067311;28;20053;-82
2021/11/04 00:23:09;;;;;;;0.20;0.20;;;;;;;5.71;100.00;99813.19;5066798;28;20053;-82
2021/11/04 00:25:42;;;;;;;0.30;0.30;;;;;;;5.78;100.00;99802.94;5060223;28;20041;-81
2021/11/04 00:28:16;;;;;;;0.30;0.30;;;;;;;5.77;100.00;99816.69;5068557;28;20108;-81
2021/11/04 00:30:50;;;;;;;0.17;0.17;;;;;;;5.76;100.00;99817.78;5058006;28;20045;-82
2021/11/04 00:33:18;;;;;;;0.20;0.20;;;;;;;5.70;100.00;99803.47;5082678;28;20101;-81
2021/11/04 00:35:53;;;;;;;0.22;0.22;;;;;;;5.72;100.00;99787.81;5089114;28;20063;-82
2021/11/04 00:38:26;;;;;;;0.30;0.30;;;;;;;5.66;100.00;99788.88;5067448;28;20047;-82
2021/11/04 00:40:59;;;;;;;0.20;0.20;;;;;;;5.73;100.00;99797.53;5062408;28;20519;-82
2021/11/04 00:43:28;;;;;;;0.28;0.28;;;;;;;5.73;100.00;99796.72;5072009;28;20052;-83
2021/11/04 00:45:56;;;;;;;0.20;0.20;;;;;;;5.75;100.00;99795.38;5070466;28;20048;-82
2021/11/04 00:48:29;;;;;;;0.20;0.20;;;;;;;5.80;100.00;99791.88;5066988;28;20059;-81
2021/11/04 00:51:04;;;;;;;0.25;0.25;;;;;;;5.76;100.00;99785.41;5073904;28;20060;-82
2021/11/04 00:53:37;;;;;;;0.20;0.20;;;;;;;5.69;100.00;99790.22;5070587;28;20052;-82
2021/11/04 00:56:10;;;;;;;0.20;0.20;;;;;;;5.75;100.00;99784.56;5090477;28;20412;-81
2021/11/04 00:58:44;;;;;;;0.20;0.20;;;;;;;5.72;100.00;99789.72;5063958;28;20049;-81
2021/11/04 01:01:17;;;;;;;0.20;0.20;;;;;;;5.73;100.00;99792.16;5086651;28;20416;-82
2021/11/04 01:03:46;;;;;;;0.20;0.20;;;;;;;5.81;100.00;99793.47;5064714;28;20049;-81
2021/11/04 01:06:22;;;;;;;0.20;0.20;;;;;;;5.68;100.00;99785.94;5056945;28;20044;-81
2021/11/04 01:08:55;;;;;;;0.20;0.20;;;;;;;5.65;100.00;99784.59;5064950;28;20037;-82
2021/11/04 01:11:29;;;;;;;0.30;0.30;;;;;;;5.63;100.00;99775.94;5066205;28;20347;-82
2021/11/04 01:14:02;;;;;;;0.20;0.20;;;;;;;5.63;100.00;99770.53;5067756;28;20049;-81
2021/11/04 01:16:38;;;;;;;0.20;0.20;;;;;;;5.67;100.00;99778.91;5068947;28;20045;-83
2021/11/04 01:19:12;;;;;;;0.30;0.30;;;;;;;5.65;100.00;99778.34;5068912;28;20044;-82
2021/11/04 01:21:42;;;;;;;0.20;0.20;;;;;;;5.64;100.00;99763.25;5082927;28;20049;-82
2021/11/04 01:24:15;;;;;;;0.20;0.20;;;;;;;5.70;100.00;99778.38;5068583;28;20538;-82
2021/11/04 01:26:49;;;;;;;0.20;0.20;;;;;;;5.65;100.00;99773.78;5064442;28;20056;-82
2021/11/04 01:29:22;;;;;;;0.20;0.20;;;;;;;5.53;100.00;99751.66;5068089;28;20507;-82
2021/11/04 01:31:55;;;;;;;0.20;0.20;;;;;;;5.68;100.00;99761.63;5078305;28;20114;-82
2021/11/04 01:34:29;;;;;;;0.30;0.30;;;;;;;5.66;100.00;99751.09;5082999;28;20071;-82
2021/11/04 01:37:04;;;;;;;0.20;0.20;;;;;;;5.71;100.00;99750.28;5076670;28;20534;-82
2021/11/04 01:39:32;;;;;;;0.25;0.25;;;;;;;5.79;100.00;99750.56;5065372;28;20051;-82
2021/11/04 01:42:06;;;;;;;0.20;0.20;;;;;;;5.83;100.00;99755.41;5067862;28;20052;-82
2021/11/04 01:44:39;;;;;;;0.20;0.20;;;;;;;5.87;100.00;99751.91;5081799;28;20057;-82
2021/11/04 01:47:12;;;;;;;0.30;0.30;;;;;;;5.71;100.00;99753.78;5085763;28;20400;-82
2021/11/04 01:49:47;;;;;;;0.20;0.20;;;;;;;5.71;100.00;99745.69;5065927;28;20052;-83
2021/11/04 01:52:23;;;;;;;0.20;0.20;;;;;;;5.72;100.00;99752.72;5071217;28;20071;-81
2021/11/04 01:54:56;;;;;;;0.20;0.20;;;;;;;5.76;100.00;99761.09;5069692;28;20040;-82
2021/11/04 01:57:29;;;;;;;0.20;0.20;;;;;;;5.62;100.00;99750.00;5073019;28;20068;-82
2021/11/04 01:59:58;;;;;;;0.25;0.25;;;;;;;5.70;100.00;99764.88;5069320;28;20063;-82
2021/11/04 02:02:37;;;;;;;0.20;0.20;;;;;;;5.69;100.00;99758.66;5076149;28;20052;-82
2021/11/04 02:05:11;;;;;;;0.20;0.20;;;;;;;5.65;100.00;99751.34;5091049;28;20044;-83
2021/11/04 02:07:50;;;;;;;0.20;0.20;;;;;;;5.60;100.00;99750.28;5070484;28;20292;-83
2021/11/04 02:10:23;;;;;;;0.20;0.20;;;;;;;5.66;100.00;99755.69;5080326;28;20072;-83
2021/11/04 02:13:02;;;;;;;0.20;0.20;;;;;;;5.59;100.00;99753.25;5073437;28;20041;-82
2021/11/04 02:15:38;;;;;;;0.30;0.30;;;;;;;5.58;100.00;99748.94;5065942;28;20048;-83
2021/11/04 02:18:08;;;;;;;0.20;0.20;;;;;;;5.65;100.00;99749.50;5069523;28;20115;-82
2021/11/04 02:20:53;;;;;;;0.20;0.20;;;;;;;5.65;100.00;99743.25;5070968;28;20052;-83
2021/11/04 02:23:34;;;;;;;0.20;0.20;;;;;;;5.74;100.00;99750.53;5067247;28;20044;-82
2021/11/04 02:26:09;;;;;;;0.25;0.25;;;;;;;5.80;100.00;99748.69;5070325;28;20045;-82
2021/11/04 02:28:40;;;;;;;0.20;0.20;;;;;;;5.81;100.00;99754.88;5063703;28;20112;-82
2021/11/04 02:31:14;;;;;;;0.20;0.20;;;;;;;5.74;100.00;99749.75;5074830;28;20044;-82
2021/11/04 02:33:44;;;;;;;0.20;0.20;;;;;;;5.60;100.00;99717.09;5082428;28;20063;-82
2021/11/04 02:36:18;;;;;;;0.20;0.20;;;;;;;5.76;100.00;99748.41;5084102;28;20052;-82
2021/11/04 02:38:52;;;;;;;0.20;0.20;;;;;;;5.73;100.00;99743.56;5068356;28;20123;-81
2021/11/04 02:41:30;;;;;;;0.30;0.30;;;;;;;5.85;100.00;99745.16;5076812;28;20361;-82
2021/11/04 02:43:59;;;;;;;0.20;0.20;;;;;;;5.80;100.00;99754.09;5066018;28;20049;-82
2021/11/04 02:46:32;;;;;;;0.20;0.20;;;;;;;5.79;100.00;99738.97;5061051;28;20041;-82
2021/11/04 02:49:06;;;;;;;0.20;0.20;;;;;;;5.82;100.00;99745.72;5075947;28;20051;-82
2021/11/04 02:51:40;;;;;;;0.20;0.20;;;;;;;5.91;100.00;99736.78;5069744;28;20052;-81
2021/11/04 02:54:13;;;;;;;0.25;0.25;;;;;;;5.87;100.00;99745.69;5065832;28;20505;-81
2021/11/04 02:56:49;;;;;;;0.20;0.20;;;;;;;5.80;100.00;99732.47;5068722;28;20052;-81
2021/11/04 02:59:24;;;;;;;0.10;0.10;;;;;;;5.78;100.00;99737.31;5063442;28;20493;-82
2021/11/04 03:02:01;;;;;;;0.20;0.20;;;;;;;5.83;100.00;99734.63;5063475;28;20056;-81
2021/11/04 03:04:34;;;;;;;0.25;0.25;;;;;;;5.77;100.00;99730.31;5059234;28;20596;-81
2021/11/04 03:07:08;;;;;;;0.20;0.20;;;;;;;5.79;100.00;99728.16;5071097;28;20045;-82
2021/11/04 03:09:36;;;;;;;0.30;0.30;;;;;;;5.79;100.00;99728.16;5064114;28;20057;-83
2021/11/04 03:12:08;;;;;;;0.20;0.20;;;;;;;5.70;100.00;99735.97;5065949;28;20052;-81
2021/11/04 03:14:42;;;;;;;0.30;0.30;;;;;;;5.75;100.00;99735.19;5068160;28;20052;-81
2021/11/04 03:17:16;;;;;;;0.20;0.20;;;;;;;5.75;100.00;99730.56;5062667;28;20074;-81
2021/11/04 03:19:49;;;;;;;0.20;0.20;;;;;;;5.78;100.00;99740.81;5057584;28;20045;-82
2021/11/04 03:22:23;;;;;;;0.30;0.30;;;;;;;5.77;100.00;99738.41;5075414;28;20143;-82
2021/11/04 03:24:56;;;;;;;0.20;0.20;;;;;;;5.74;100.00;99728.94;5064933;28;20052;-83
2021/11/04 03:27:26;;;;;;;0.25;0.20;;;;;;;5.74;100.00;99752.44;5068006;28;20663;-83
2021/11/04 03:29:56;;;;;;;0.20;0.20;;;;;;;5.60;100.00;99723.28;5058795;28;20064;-82
2021/11/04 03:32:30;;;;;;;0.20;0.20;;;;;;;5.72;100.00;99746.53;5065477;28;20076;-82
2021/11/04 03:35:06;;;;;;;0.20;0.20;;;;;;;5.66;100.00;99740.28;5083709;28;20064;-82
2021/11/04 03:37:42;;;;;;;0.22;0.22;;;;;;;5.63;100.00;99746.22;5064710;28;20052;-82
2021/11/04 03:40:16;;;;;;;0.30;0.30;;;;;;;5.61;100.00;99743.81;5070242;28;20059;-83
2021/11/04 03:42:51;;;;;;;0.15;0.15;;;;;;;5.63;100.00;99743.53;5079206;28;20068;-81
2021/11/04 03:45:25;;;;;;;0.20;0.20;;;;;;;5.65;100.00;99738.69;5081300;28;20049;-81
2021/11/04 03:47:59;;;;;;;0.20;0.20;;;;;;;5.66;100.00;99736.78;5065704;28;20045;-82
2021/11/04 03:50:28;;;;;;;0.20;0.20;;;;;;;5.69;100.00;99723.56;5068007;28;20048;-81
2021/11/04 03:53:01;;;;;;;0.30;0.30;;;;;;;5.59;100.00;99715.47;5068202;28;20059;-82
2021/11/04 03:55:31;;;;;;;0.20;0.20;;;;;;;5.42;100.00;99699.56;5078007;28;20078;-82
2021/11/04 03:58:06;;;;;;;0.30;0.30;;;;;;;5.61;100.00;99729.50;5071697;28;20488;-81
2021/11/04 04:00:39;;;;;;;0.20;0.20;;;;;;;5.69;100.00;99736.25;5068338;28;20485;-81
2021/11/04 04:03:13;;;;;;;0.20;0.20;;;;;;;5.62;100.00;99741.91;5061758;28;20044;-81
2021/11/04 04:05:59;;;;;;;0.20;0.20;;;;;;;5.61;100.00;99735.72;5084019;28;20059;-81
2021/11/04 04:08:33;;;;;;;0.22;0.22;;;;;;;5.52;100.00;99740.00;5066817;28;20044;-82
2021/11/04 04:11:06;;;;;;;0.20;0.20;;;;;;;5.66;100.00;99740.28;5064397;28;20408;-82
2021/11/04 04:13:41;;;;;;;0.10;0.10;;;;;;;5.60;100.00;99738.69;5067819;28;20053;-82
2021/11/04 04:16:15;;;;;;;0.20;0.20;;;;;;;5.62;100.00;99733.81;5061766;28;20043;-82
2021/11/04 04:18:48;;;;;;;0.20;0.20;;;;;;;5.60;100.00;99723.28;5071799;28;20052;-82
2021/11/04 04:21:22;;;;;;;0.10;0.10;;;;;;;5.62;100.00;99742.75;5082621;28;20048;-80
2021/11/04 04:23:55;;;;;;;0.20;0.20;;;;;;;5.62;100.00;99731.94;5062275;28;20548;-82
2021/11/04 04:26:28;;;;;;;0.20;0.20;;;;;;;5.61;100.00;99721.41;5071645;28;20044;-82
2021/11/04 04:28:59;;;;;;;0.20;0.20;;;;;;;5.57;100.00;99721.13;5082586;28;20056;-81
2021/11/04 04:31:27;;;;;;;0.20;0.20;;;;;;;5.55;100.00;99723.31;5068822;28;20053;-81
2021/11/04 04:34:01;;;;;;;0.20;0.20;;;;;;;5.45;100.00;99726.00;5074276;28;20048;-82
2021/11/04 04:36:29;;;;;;;0.30;0.30;;;;;;;5.44;100.00;99717.09;5073496;28;20040;-82
2021/11/04 04:39:03;;;;;;;0.30;0.30;;;;;;;5.39;100.00;99710.88;5074685;28;20044;-80
2021/11/04 04:41:31;;;;;;;0.15;0.15;;;;;;;5.37;100.00;99718.44;5067265;28;20049;-81
2021/11/04 04:44:01;;;;;;;0.20;0.20;;;;;;;5.48;100.00;99713.84;5062857;28;20389;-81
2021/11/04 04:46:34;;;;;;;0.20;0.20;;;;;;;5.49;100.00;99710.06;5101449;28;20056;-82
2021/11/04 04:49:08;;;;;;;0.20;0.20;;;;;;;5.45;100.00;99709.78;5071241;28;20052;-81
2021/11/04 04:51:42;;;;;;;0.20;0.20;;;;;;;5.55;100.00;99712.50;5084940;28;20434;-80
2021/11/04 04:54:15;;;;;;;0.20;0.20;;;;;;;5.56;100.00;99711.41;5087872;28;20047;-82
2021/11/04 04:56:43;;;;;;;0.10;0.10;;;;;;;5.51;100.00;99711.44;5102062;28;20048;-81
2021/11/04 04:59:13;;;;;;;0.20;0.20;;;;;;;5.50;100.00;99717.91;5086252;28;20052;-80
2021/11/04 05:01:46;;;;;;;0.20;0.20;;;;;;;5.39;100.00;99717.09;5068619;28;20041;-80
2021/11/04 05:04:19;;;;;;;0.17;0.17;;;;;;;5.48;100.00;99717.34;5066883;28;20045;-80
2021/11/04 05:06:47;;;;;;;0.20;0.20;;;;;;;5.51;100.00;99716.84;5072229;28;20053;-81
2021/11/04 05:09:16;;;;;;;0.20;0.20;;;;;;;5.53;100.00;99721.94;5075176;28;20040;-81
2021/11/04 05:11:49;;;;;;;0.20;0.20;;;;;;;5.38;100.00;99701.16;5072767;28;20048;-81
2021/11/04 05:14:23;;;;;;;0.20;0.20;;;;;;;5.47;100.00;99725.72;5079512;28;20059;-81
2021/11/04 05:16:51;;;;;;;0.30;0.30;;;;;;;5.49;100.00;99732.47;5069077;28;20045;-81
2021/11/04 05:19:25;;;;;;;0.20;0.20;;;;;;;5.38;100.00;99728.94;5061162;28;20055;-81
2021/11/04 05:21:58;;;;;;;0.20;0.20;;;;;;;5.48;100.00;99725.44;5063939;28;20059;-80
2021/11/04 05:24:34;;;;;;;0.20;0.20;;;;;;;5.54;100.00;99726.28;5070147;28;20052;-81
2021/11/04 05:27:08;;;;;;;0.30;0.30;;;;;;;5.42;100.00;99731.94;5060703;28;20044;-81
2021/11/04 05:29:43;;;;;;;0.20;0.20;;;;;;;5.36;100.00;99733.81;5060984;28;20047;-81
2021/11/04 05:32:11;;;;;;;0.30;0.30;;;;;;;5.42;100.00;99731.94;5065493;28;20061;-81
2021/11/04 05:34:45;;;;;;;0.20;0.20;;;;;;;5.33;100.00;99745.16;5074274;28;20063;-81
2021/11/04 05:37:18;;;;;;;0.20;0.20;;;;;;;5.31;100.00;99746.50;5066337;28;20056;-81
2021/11/04 05:39:52;;;;;;;0.20;0.20;;;;;;;5.32;100.00;99742.69;5069730;28;20048;-81
2021/11/04 05:42:21;;;;;;;0.20;0.20;;;;;;;5.39;100.00;99748.66;5072010;28;20051;-83
2021/11/04 05:44:51;;;;;;;0.20;0.20;;;;;;;5.27;100.00;99728.16;5067371;28;20048;-81
2021/11/04 05:47:19;;;;;;;0.20;0.20;;;;;;;5.40;100.00;99743.00;5062606;28;20059;-80
2021/11/04 05:49:52;;;;;;;0.20;0.20;;;;;;;5.37;100.00;99740.00;5072540;28;20060;-80
2021/11/04 05:52:20;;;;;;;0.20;0.20;;;;;;;5.43;100.00;99752.44;5076279;28;20052;-80
2021/11/04 05:54:50;;;;;;;0.20;0.20;;;;;;;5.36;100.00;99750.00;5069250;28;20048;-82
2021/11/04 05:57:24;;;;;;;0.20;0.20;;;;;;;5.38;100.00;99747.03;5086924;28;20052;-82
2021/11/04 05:59:54;;;;;;;0.10;0.10;;;;;;;5.33;100.00;99757.81;5068980;28;20063;-82
2021/11/04 06:02:27;;;;;;;0.20;0.20;;;;;;;5.33;100.00;99757.81;5055821;28;20053;-81
2021/11/04 06:05:01;;;;;;;0.20;0.20;;;;;;;5.33;100.00;99757.81;5062656;28;20079;-80
2021/11/04 06:07:29;;;;;;;0.20;0.20;;;;;;;5.33;100.00;99765.91;5069993;28;20056;-81
2021/11/04 06:09:58;;;;;;;0.20;0.20;;;;;;;5.39;100.00;99764.84;5070125;28;20045;-81
2021/11/04 06:12:31;;;;;;;0.20;0.20;;;;;;;5.39;100.00;99771.03;5067781;28;20503;-81
2021/11/04 06:15:00;;;;;;;0.13;0.13;;;;;;;5.41;100.00;99774.31;5082942;28;20056;-82
2021/11/04 06:17:28;;;;;;;0.10;0.10;;;;;;;5.33;100.00;99768.59;5081189;28;20051;-81
2021/11/04 06:19:57;;;;;;;0.20;0.20;;;;;;;5.31;100.00;99768.06;5069252;28;20063;-82
2021/11/04 06:22:25;;;;;;;0.20;0.20;;;;;;;5.39;100.00;99770.25;5061405;28;20059;-81
2021/11/04 06:24:53;;;;;;;0.15;0.15;;;;;;;5.37;100.00;99767.81;5074099;28;20048;-81
2021/11/04 06:27:26;;;;;;;0.20;0.20;;;;;;;5.37;100.00;99762.44;5069567;28;20420;-81
2021/11/04 06:30:02;;;;;;;0.20;0.20;;;;;;;5.48;100.00;99760.53;5080114;28;20049;-81
2021/11/04 06:32:36;;;;;;;0.20;0.20;;;;;;;5.31;100.00;99760.78;5058376;28;20099;-81
2021/11/04 06:35:10;;;;;;;0.28;0.28;;;;;;;5.27;100.00;99748.91;5065792;28;20041;-80
2021/11/04 06:37:39;;;;;;;0.20;0.20;;;;;;;5.43;100.00;99760.53;5065729;28;20059;-80
2021/11/04 06:40:12;;;;;;;0.20;0.20;;;;;;;5.32;100.00;99757.00;5069288;28;20044;-82
2021/11/04 06:42:46;;;;;;;0.10;0.10;;;;;;;5.37;100.00;99748.09;5068349;28;20048;-80
2021/11/04 06:45:20;;;;;;;0.20;0.20;;;;;;;5.42;100.00;99750.81;5070010;28;20044;-81
2021/11/04 06:47:55;;;;;;;0.20;0.20;;;;;;;5.39;100.00;99743.25;5061918;28;20056;-83
2021/11/04 06:50:27;;;;;;;0.20;0.20;;;;;;;5.48;100.00;99757.03;5069991;28;20500;-80
2021/11/04 06:53:06;;;;;;;0.20;0.20;;;;;;;5.43;100.00;99720.88;5059450;28;20049;-80
2021/11/04 06:55:40;;;;;;;0.10;0.10;;;;;;;5.52;100.00;99740.00;5062081;28;20056;-80
2021/11/04 06:58:18;;;;;;;0.20;0.20;;;;;;;5.42;100.00;99737.31;5065557;28;20044;-81
2021/11/04 07:00:54;;;;;;;0.20;0.20;;;;;;;5.46;100.00;99738.41;5063987;28;20489;-80
2021/11/04 07:03:27;;;;;;;0.20;0.20;;;;;;;5.45;100.00;99731.38;5063643;28;20075;-81
2021/11/04 07:06:07;;;;;;;0.20;0.20;;;;;;;5.53;100.00;99732.75;5057767;28;20408;-81
2021/11/04 07:08:43;;;;;;;0.20;0.20;;;;;;;5.49;100.00;99731.66;5062870;28;20056;-80
2021/11/04 07:11:17;;;;;;;0.20;0.20;;;;;;;5.35;100.00;99712.50;5062048;28;20498;-81
2021/11/04 07:13:51;;;;;;;0.20;0.20;;;;;;;5.44;100.00;99744.06;5064184;28;20052;-80
2021/11/04 07:16:23;;;;;;;0.20;0.20;;;;;;;5.52;100.00;99739.22;5067286;28;20075;-80
2021/11/04 07:18:57;;;;;;;0.25;0.25;;;;;;;5.53;100.00;99747.03;5065779;28;20052;-81
2021/11/04 07:21:39;;;;;;;0.20;0.20;;;;;;;5.48;100.00;99744.34;5069367;28;20052;-81
2021/11/04 07:24:10;;;;;;;0.20;0.20;;;;;;;5.62;100.00;99753.53;5064690;28;20059;-80
2021/11/04 07:26:41;;;;;;;0.30;0.30;;;;;;;5.58;100.00;99747.06;5082849;28;20052;-80
2021/11/04 07:29:20;;;;;;;0.20;0.20;;;;;;;5.58;100.00;99738.97;5076833;28;20052;-82
2021/11/04 07:31:53;;;;;;;0.20;0.20;;;;;;;5.52;100.00;99723.81;5078676;28;20056;-81
2021/11/04 07:34:23;;;;;;;0.20;0.20;;;;;;;5.58;100.00;99738.97;5065955;28;20037;-81
2021/11/04 07:36:57;;;;;;;0.22;0.22;;;;;;;5.55;100.00;99730.56;5075528;28;20056;-81
2021/11/04 07:39:30;;;;;;;0.20;0.20;;;;;;;5.53;100.00;99736.25;5088746;28;20060;-80
2021/11/04 07:42:06;;;;;;;0.20;0.20;;;;;;;5.58;100.00;99724.66;5068909;28;20048;-81
2021/11/04 07:44:40;;;;;;;0.30;0.30;;;;;;;5.52;100.00;99721.13;5077477;28;20053;-81
2021/11/04 07:47:15;;;;;;;0.20;0.20;;;;;;;5.66;100.00;99721.41;5082848;28;20053;-81
2021/11/04 07:49:44;;;;;;;0.20;0.20;;;;;;;5.57;100.00;99704.16;5096481;28;20060;-80
2021/11/04 07:52:12;;;;;;;0.20;0.20;;;;;;;5.63;100.00;99700.34;5085304;28;20060;-81
2021/11/04 07:54:45;;;;;;;0.20;0.20;;;;;;;5.81;100.00;99717.09;5068948;28;20052;-80
2021/11/04 07:57:18;;;;;;;0.20;0.20;;;;;;;5.80;100.00;99716.28;5064813;28;20059;-81
2021/11/04 07:59:46;;;;;;;0.20;0.20;;;;;;;5.75;100.00;99708.97;5072898;28;20037;-82
2021/11/04 08:02:21;;;;;;;0.20;0.20;;;;;;;5.77;100.00;99714.09;5066354;28;20049;-80
2021/11/04 08:04:54;;;;;;;0.20;0.20;;;;;;;5.83;100.00;99720.31;5067903;28;20046;-82
2021/11/04 08:07:31;;;;;;;0.20;0.20;;;;;;;5.77;100.00;99709.53;5078324;28;20055;-81
2021/11/04 08:09:59;;;;;;;0.20;0.20;;;;;;;5.79;100.00;99704.66;5069372;28;20041;-81
2021/11/04 08:12:27;;;;;;;0.20;0.20;;;;;;;5.83;100.00;99704.94;5063614;28;20056;-84
2021/11/04 08:14:56;;;;;;;0.20;0.20;;;;;;;5.75;100.00;99710.88;5073359;28;20052;-83
2021/11/04 08:17:25;;;;;;;0.15;0.15;;;;;;;5.83;100.00;99712.19;5100867;28;20037;-85
2021/11/04 08:19:58;;;;;;;0.20;0.20;;;;;;;6.04;100.00;99721.94;5080016;28;20390;-83
2021/11/04 08:22:32;;;;;;;0.20;0.20;;;;;;;5.90;100.00;99708.16;5079691;28;20060;-85
2021/11/04 08:25:07;;;;;;;0.20;0.20;;;;;;;6.08;100.00;99719.50;5083225;28;20542;-83
2021/11/04 08:27:40;;;;;;;0.20;0.20;;;;;;;5.93;100.00;99712.22;5072626;28;20408;-82
2021/11/04 08:30:16;;;;;;;0.22;0.22;;;;;;;6.10;100.00;99720.03;5073785;28;20045;-83
2021/11/04 08:32:46;;;;;;;0.20;0.20;;;;;;;6.19;100.00;99712.19;5071142;28;20052;-83
2021/11/04 08:35:14;;;;;;;0.20;0.20;;;;;;;6.05;100.00;99704.66;5071108;28;20047;-84
2021/11/04 08:37:47;;;;;;;0.30;0.30;;;;;;;6.04;100.00;99703.03;5074454;28;20053;-83
2021/11/04 08:40:21;;;;;;;0.20;0.20;;;;;;;6.15;100.00;99697.63;5049729;28;20057;-83
2021/11/04 08:42:55;;;;;;;0.30;0.30;;;;;;;6.15;100.00;99709.22;5036774;28;20067;-85
2021/11/04 08:45:24;;;;;;;0.30;0.30;;;;;;;6.17;100.00;99707.03;5040317;28;20052;-83
2021/11/04 08:47:59;;;;;;;0.20;0.20;;;;;;;6.24;100.00;99699.47;5038088;28;20049;-83
2021/11/04 08:50:33;;;;;;;0.20;0.20;;;;;;;6.22;100.00;99701.63;5077810;28;20057;-83
2021/11/04 08:53:01;;;;;;;0.20;0.20;;;;;;;6.20;100.00;99705.69;5051708;28;20618;-82
2021/11/04 08:56:02;;;;;;;0.20;0.20;;;;;;;6.37;100.00;99703.47;5052199;28;20836;-85
2021/11/04 08:58:30;;;;;;;0.30;0.30;;;;;;;6.40;100.00;99700.22;5050379;28;20053;-81
2021/11/04 09:01:09;;;;;;;0.20;0.20;;;;;;;6.35;100.00;99707.53;5076197;28;20056;-82
2021/11/04 09:03:44;;;;;;;0.20;0.20;;;;;;;6.28;100.00;99697.00;5068699;28;20081;-83
2021/11/04 09:06:13;;;;;;;0.20;0.20;;;;;;;6.33;100.00;99702.41;5047771;28;20056;-81
2021/11/04 09:08:41;;;;;;;0.30;0.30;;;;;;;6.40;100.00;99694.00;5049072;28;21912;-83
2021/11/04 09:11:15;;;;;;;0.20;0.20;;;;;;;6.39;100.00;99693.19;5069890;28;20044;-82
2021/11/04 09:13:49;;;;;;;0.30;0.30;;;;;;;6.37;100.00;99703.47;5057029;28;20053;-82
2021/11/04 09:17:14;;;;;;;0.20;0.20;;;;;;;6.44;100.00;99693.16;5051884;28;20736;-82
2021/11/04 09:19:51;;;;;;;0.20;0.20;;;;;;;6.36;100.00;99696.44;5046738;28;20057;-83
2021/11/04 09:22:24;;;;;;;0.30;0.30;;;;;;;6.36;100.00;99682.94;5075987;28;20060;-83
2021/11/04 09:24:57;;;;;;;0.20;0.20;;;;;;;6.39;100.00;99687.78;5052189;28;20501;-84
2021/11/04 09:27:26;;;;;;;0.20;0.20;;;;;;;6.38;100.00;99682.66;5049601;28;20061;-82
2021/11/04 09:30:25;;;;;;;0.20;0.20;;;;;;;6.47;100.00;99689.13;5052043;28;20063;-83
2021/11/04 09:32:54;;;;;;;0.20;0.20;;;;;;;6.36;100.00;99671.31;5051705;28;20057;-82
2021/11/04 09:35:26;;;;;;;0.20;0.20;;;;;;;6.46;100.00;99671.28;5054238;28;20056;-82
2021/11/04 09:37:54;;;;;;;0.28;0.28;;;;;;;6.51;100.00;99670.47;5046803;28;20041;-83
2021/11/04 09:40:28;;;;;;;0.25;0.25;;;;;;;6.43;100.00;99658.31;5050763;28;20053;-83
2021/11/04 09:42:56;;;;;;;0.20;0.20;;;;;;;6.55;100.00;99671.53;5068422;28;20060;-81
2021/11/04 09:45:29;;;;;;;0.30;0.30;;;;;;;6.58;100.00;99666.34;5047029;28;20051;-82
2021/11/04 09:47:58;;;;;;;0.20;0.20;;;;;;;6.67;100.00;99661.19;5046544;28;20052;-83
2021/11/04 09:50:30;;;;;;;0.30;0.30;;;;;;;6.67;100.00;99668.47;5047216;28;20087;-80
2021/11/04 09:53:07;;;;;;;0.25;0.25;;;;;;;6.69;100.00;99664.41;5049404;28;20049;-84
2021/11/04 09:55:40;;;;;;;0.25;0.25;;;;;;;6.62;100.00;99656.59;5053659;28;20091;-81
2021/11/04 09:58:14;;;;;;;0.20;0.20;;;;;;;6.66;100.00;99656.88;5049737;28;20049;-81
2021/11/04 10:00:50;;;;;;;0.20;0.20;;;;;;;6.59;100.00;99640.94;5072336;28;20057;-83
2021/11/04 10:03:20;;;;;;;0.30;0.30;;;;;;;6.75;100.00;99662.47;5048718;28;20048;-85
2021/11/04 10:05:55;;;;;;;0.28;0.28;;;;;;;6.73;100.00;99660.06;5049678;28;20071;-84
2021/11/04 10:08:32;;;;;;;0.20;0.20;;;;;;;6.93;100.00;99661.84;5044335;28;20056;-80
2021/11/04 10:11:10;;;;;;;0.20;0.20;;;;;;;6.90;100.00;99656.97;5072874;28;20056;-82
2021/11/04 10:14:10;;;;;;;0.17;0.17;;;;;;;6.79;100.00;99647.31;5042267;28;20075;-82
2021/11/04 10:16:43;;;;;;;0.30;0.30;;;;;;;6.90;100.00;99645.34;5075303;28;20099;-82
2021/11/04 10:19:18;;;;;;;0.20;0.20;;;;;;;6.85;100.00;99635.41;5076090;28;20715;-88
2021/11/04 10:22:06;;;;;;;0.20;0.20;;;;;;;6.71;100.00;99610.03;5050569;28;20060;-84
2021/11/04 10:24:48;;;;;;;0.30;0.30;;;;;;;7.03;100.00;99649.31;5050575;28;20056;-86
2021/11/04 10:27:32;;;;;;;0.20;0.20;;;;;;;7.01;100.00;99644.19;5051486;28;20045;-83
2021/11/04 10:30:09;;;;;;;0.28;0.28;;;;;;;6.90;100.00;99629.13;5050259;28;20729;-82
2021/11/04 10:32:37;;;;;;;0.20;0.20;;;;;;;6.96;100.00;99639.63;5047462;28;20059;-83
2021/11/04 10:35:11;;;;;;;0.20;0.20;;;;;;;6.90;100.00;99634.53;5045019;28;20064;-83
2021/11/04 10:37:43;;;;;;;0.25;0.25;;;;;;;6.76;100.00;99624.34;5044459;28;20061;-83
2021/11/04 10:40:18;;;;;;;0.28;0.28;;;;;;;6.97;100.00;99633.16;5048507;28;21697;-84
2021/11/04 10:42:54;;;;;;;0.30;0.30;;;;;;;6.76;100.00;99620.84;5047821;28;20124;-82
2021/11/04 10:45:29;;;;;;;0.30;0.30;;;;;;;6.80;100.00;99635.41;5041725;28;20056;-82
2021/11/04 10:48:16;;;;;;;0.30;0.30;;;;;;;6.91;100.00;99636.16;5051180;28;20048;-82
2021/11/04 10:50:45;;;;;;;0.30;0.30;;;;;;;6.90;100.00;99632.63;5041778;28;20049;-81
2021/11/04 10:53:21;;;;;;;0.30;0.30;;;;;;;6.92;100.00;99627.75;5050463;28;20064;-83
2021/11/04 10:55:54;;;;;;;0.23;0.23;;;;;;;7.03;100.00;99636.63;5050492;28;20059;-82
2021/11/04 10:58:32;;;;;;;0.20;0.20;;;;;;;6.91;100.00;99631.56;5046483;28;20053;-84
2021/11/04 11:01:06;;;;;;;0.30;0.30;;;;;;;6.85;100.00;99634.56;5062911;28;20064;-81
2021/11/04 11:03:40;;;;;;;0.25;0.25;;;;;;;6.89;100.00;99612.09;5045548;28;20056;-84
2021/11/04 11:06:17;;;;;;;0.20;0.20;;;;;;;7.03;100.00;99619.56;5046275;28;20059;-81
2021/11/04 11:08:49;;;;;;;0.20;0.20;;;;;;;6.96;100.00;99626.13;5037560;28;20064;-81
2021/11/04 11:11:26;;;;;;;0.20;0.20;;;;;;;6.95;100.00;99613.66;5064937;28;20052;-82
2021/11/04 11:13:59;;;;;;;0.20;0.20;;;;;;;6.87;100.00;99622.38;5043771;28;20060;-80
2021/11/04 11:16:36;;;;;;;0.30;0.30;;;;;;;6.87;100.00;99605.34;5045790;28;20041;-83
2021/11/04 11:19:05;;;;;;;0.30;0.30;;;;;;;6.94;100.00;99617.47;5043921;28;20052;-82
2021/11/04 11:21:39;;;;;;;0.22;0.22;;;;;;;6.92;100.00;99606.13;5041630;28;20053;-81
2021/11/04 11:24:16;;;;;;;0.25;0.25;;;;;;;7.05;100.00;99620.91;5043721;28;20049;-83
2021/11/04 11:26:52;;;;;;;0.20;0.20;;;;;;;6.96;100.00;99606.34;5054144;28;20048;-82
2021/11/04 11:29:24;;;;;;;0.20;0.20;;;;;;;6.93;100.00;99602.34;5051000;28;20056;-80
2021/11/04 11:32:00;;;;;;;0.30;0.30;;;;;;;6.95;100.00;99604.75;5051775;28;20694;-82
2021/11/04 11:34:36;;;;;;;0.30;0.30;;;;;;;6.96;100.00;99609.06;5057900;28;20496;-80
2021/11/04 11:37:17;;;;;;;0.30;0.30;;;;;;;7.03;100.00;99598.75;5052247;28;20511;-82
2021/11/04 11:39:53;;;;;;;0.20;0.20;;;;;;;6.95;100.00;99594.72;5054113;28;20061;-81
2021/11/04 11:42:28;;;;;;;0.22;0.22;;;;;;;7.07;100.00;99588.97;5050344;28;20049;-81
2021/11/04 11:45:10;;;;;;;0.30;0.30;;;;;;;6.90;100.00;99575.84;5055979;28;20049;-82
2021/11/04 11:47:46;;;;;;;0.20;0.20;;;;;;;7.05;100.00;99598.47;5052481;28;20064;-81
2021/11/04 11:50:31;;;;;;;0.25;0.25;;;;;;;7.04;100.00;99586.00;5054873;28;20050;-81
2021/11/04 11:53:37;;;;;;;0.30;0.30;;;;;;;7.13;100.00;99584.31;5067118;28;20072;-82
2021/11/04 11:56:24;;;;;;;0.20;0.20;;;;;;;7.17;100.00;99589.97;5054409;28;20088;-81
2021/11/04 11:59:17;;;;;;;0.20;0.20;;;;;;;7.10;100.00;99582.19;5053273;28;20048;-82
2021/11/04 12:01:49;;;;;;;0.20;0.20;;;;;;;6.95;100.00;99589.31;5054141;28;20133;-81
2021/11/04 12:04:25;;;;;;;0.20;0.20;;;;;;;7.06;100.00;99586.56;5049479;28;20519;-82
2021/11/04 12:06:58;;;;;;;0.30;0.30;;;;;;;6.97;100.00;99587.16;5051688;28;20056;-84